Abbyville, KS (67510)

4:15 PM CDT on August 20, 2014 (GMT -0500)
KKSHUTCH9 | Change Station
CLOSE
Current Station
Personal Weather Station
Location: Hutchinson, KS
Elevation: 1549 ft
Nearby Weather Stations

Elev 1549 ft 38.08 °N, 97.92 °W | Updated 1 second ago

Clear
Clear
97.9 °F
Feels Like 103 °F
N
12.1
Wind Variable Wind from South
Gusts 16.8 mph

Today
High -- | Low -- °F
--% Chance of Precip.
Yesterday
High -- | Low -- °F
Precip. -- in
6:52 AM 8:19 PM
Waning Crescent, 19% visible
Pressure 29.71 in
Visibility 10.0 miles
Clouds Clear
Heat Index 103 °F
Dew Point 68 °F
Humidity 38%
Rainfall 0.00 in
Snow Depth Not available.
UV 8 out of 12
Pollen 11.40 out of 12
Air Quality Not available.
Flu Activity Not available.
METAR KHUT 202052Z 18019G27KT 10SM CLR 37/18 A2979 RMK AO2 PK WND 18029/2024 SLP061 T03670178 56017

More Conditions Fewer Conditions

Pressure 29.71 in
Visibility 10.0 miles
Clouds Clear
Heat Index 103 °F
Dew Point 68 °F
Humidity 38%
Rainfall 0.00 in
Snow Depth Not available.
UV 8 out of 12
Pollen 11.40 out of 12
Air Quality Not available.
Flu Activity Not available.
METAR KHUT 202052Z 18019G27KT 10SM CLR 37/18 A2979 RMK AO2 PK WND 18029/2024 SLP061 T03670178 56017

More Conditions Fewer Conditions

10-Day Weather Forecast

Almanac

Astronomy

Aug. 20, 2014 Rise Set
Actual Time 6:52 AM CDT 8:19 PM CDT
Civil Twilight 6:24 AM CDT 8:46 PM CDT
Nautical Twilight 5:51 AM CDT 9:20 PM CDT
Astronomical Twilight 5:16 AM CDT 9:54 PM CDT
Moon 2:35 AM CDT 5:03 PM CDT
Length of Visible Light 14h 22m
Length of Day
13h 27m
Tomorrow will be 2m 14s shorter.
Waning Crescent, 19% of the Moon is Illuminated
Today
Waning Crescent
Aug 25
New
Sep 2
First Quarter
Sep 8
Full
Sep 15
Last Quarter

Today's Extremes

State Highs State Lows

Community

WunderPhotos

Upload Photos

1,745,762 photos uploaded!

WunderBlogs® & News

Nearby

Snow Depth

Station Depth Elevation
No new snow has been reported.

Earthquake Activity

City Distance Mag. Time & Date
Medford, Oklahoma 82 miles 3.4 5:54 AM CDT
2014-08-16
Medford, Oklahoma 86 miles 2.5 7:09 AM CDT
2014-08-15
Perry, Oklahoma 128 miles 2.7 6:20 PM CDT
2014-08-14
Perry, Oklahoma 128 miles 2.8 2:04 PM CDT
2014-08-14
Minimum magnitude displayed is 2.5.

Coastal Water Temperatures

Place Temperature
No Stations Reporting

Nearby Weather Stations